sensor_id;sensor_type;location;lat;lon;timestamp;temperature;humidity
20670;DHT22;10494;50.868;4.180;2024-02-28T00:01:26;4.10;1.00
20670;DHT22;10494;50.868;4.180;2024-02-28T00:03:52;4.10;1.00
20670;DHT22;10494;50.868;4.180;2024-02-28T00:06:17;4.10;1.00
20670;DHT22;10494;50.868;4.180;2024-02-28T00:08:43;4.20;1.00
20670;DHT22;10494;50.868;4.180;2024-02-28T00:11:09;4.10;1.00
20670;DHT22;10494;50.868;4.180;2024-02-28T00:13:35;4.00;1.00
20670;DHT22;10494;50.868;4.180;2024-02-28T00:16:00;3.90;1.00
20670;DHT22;10494;50.868;4.180;2024-02-28T00:18:26;3.80;1.00
20670;DHT22;10494;50.868;4.180;2024-02-28T00:20:51;3.80;1.00
20670;DHT22;10494;50.868;4.180;2024-02-28T00:23:17;3.70;1.00
20670;DHT22;10494;50.868;4.180;2024-02-28T00:25:43;3.70;1.00
20670;DHT22;10494;50.868;4.180;2024-02-28T00:28:09;3.60;1.00
20670;DHT22;10494;50.868;4.180;2024-02-28T00:30:35;3.70;1.00
20670;DHT22;10494;50.868;4.180;2024-02-28T00:33:01;3.70;1.00
20670;DHT22;10494;50.868;4.180;2024-02-28T00:35:26;3.60;1.00
20670;DHT22;10494;50.868;4.180;2024-02-28T00:37:52;3.60;1.00
20670;DHT22;10494;50.868;4.180;2024-02-28T00:40:17;3.50;1.00
20670;DHT22;10494;50.868;4.180;2024-02-28T00:42:43;3.50;1.00
20670;DHT22;10494;50.868;4.180;2024-02-28T00:45:09;3.50;1.00
20670;DHT22;10494;50.868;4.180;2024-02-28T00:47:35;3.40;1.00
20670;DHT22;10494;50.868;4.180;2024-02-28T00:50:01;3.40;1.00
20670;DHT22;10494;50.868;4.180;2024-02-28T00:52:29;3.40;1.00
20670;DHT22;10494;50.868;4.180;2024-02-28T00:54:55;3.30;1.00
20670;DHT22;10494;50.868;4.180;2024-02-28T00:57:20;3.30;1.00
20670;DHT22;10494;50.868;4.180;2024-02-28T00:59:46;3.30;1.00
20670;DHT22;10494;50.868;4.180;2024-02-28T01:02:11;3.30;1.00
20670;DHT22;10494;50.868;4.180;2024-02-28T01:04:39;3.30;1.00
20670;DHT22;10494;50.868;4.180;2024-02-28T01:07:05;3.20;1.00
20670;DHT22;10494;50.868;4.180;2024-02-28T01:09:30;3.20;1.00
20670;DHT22;10494;50.868;4.180;2024-02-28T01:11:56;3.20;1.00
20670;DHT22;10494;50.868;4.180;2024-02-28T01:14:22;3.10;1.00
20670;DHT22;10494;50.868;4.180;2024-02-28T01:16:47;3.20;1.00
20670;DHT22;10494;50.868;4.180;2024-02-28T01:19:15;3.20;1.00
20670;DHT22;10494;50.868;4.180;2024-02-28T01:21:41;3.10;1.00
20670;DHT22;10494;50.868;4.180;2024-02-28T01:24:06;3.00;1.00
20670;DHT22;10494;50.868;4.180;2024-02-28T01:26:32;2.90;1.00
20670;DHT22;10494;50.868;4.180;2024-02-28T01:28:57;2.90;1.00
20670;DHT22;10494;50.868;4.180;2024-02-28T01:31:23;2.90;1.00
20670;DHT22;10494;50.868;4.180;2024-02-28T01:33:49;2.90;1.00
20670;DHT22;10494;50.868;4.180;2024-02-28T01:36:14;2.90;1.00
20670;DHT22;10494;50.868;4.180;2024-02-28T01:38:40;2.80;1.00
20670;DHT22;10494;50.868;4.180;2024-02-28T01:41:05;2.80;1.00
20670;DHT22;10494;50.868;4.180;2024-02-28T01:43:31;2.80;1.00
20670;DHT22;10494;50.868;4.180;2024-02-28T01:46:01;2.80;1.00
20670;DHT22;10494;50.868;4.180;2024-02-28T01:48:29;2.70;1.00
20670;DHT22;10494;50.868;4.180;2024-02-28T01:50:55;2.70;1.00
20670;DHT22;10494;50.868;4.180;2024-02-28T01:53:21;2.70;1.00
20670;DHT22;10494;50.868;4.180;2024-02-28T01:55:47;2.70;1.00
20670;DHT22;10494;50.868;4.180;2024-02-28T01:58:13;2.70;1.00
20670;DHT22;10494;50.868;4.180;2024-02-28T02:00:39;2.60;1.00
20670;DHT22;10494;50.868;4.180;2024-02-28T02:03:05;2.60;1.00
20670;DHT22;10494;50.868;4.180;2024-02-28T02:05:31;2.60;1.00
20670;DHT22;10494;50.868;4.180;2024-02-28T02:07:57;2.60;1.00
20670;DHT22;10494;50.868;4.180;2024-02-28T02:10:25;2.60;1.00
20670;DHT22;10494;50.868;4.180;2024-02-28T02:12:52;2.60;1.00
20670;DHT22;10494;50.868;4.180;2024-02-28T02:15:18;2.60;1.00
20670;DHT22;10494;50.868;4.180;2024-02-28T02:17:43;2.60;1.00
20670;DHT22;10494;50.868;4.180;2024-02-28T02:20:11;2.50;1.00
20670;DHT22;10494;50.868;4.180;2024-02-28T02:22:39;2.40;1.00
20670;DHT22;10494;50.868;4.180;2024-02-28T02:25:05;2.30;1.00
20670;DHT22;10494;50.868;4.180;2024-02-28T02:27:31;2.30;1.00
20670;DHT22;10494;50.868;4.180;2024-02-28T02:29:57;2.40;1.00
20670;DHT22;10494;50.868;4.180;2024-02-28T02:32:22;2.40;1.00
20670;DHT22;10494;50.868;4.180;2024-02-28T02:34:48;2.40;1.00
20670;DHT22;10494;50.868;4.180;2024-02-28T02:37:13;2.50;1.00
20670;DHT22;10494;50.868;4.180;2024-02-28T02:39:39;2.50;1.00
20670;DHT22;10494;50.868;4.180;2024-02-28T02:42:05;2.50;1.00
20670;DHT22;10494;50.868;4.180;2024-02-28T02:44:30;2.50;1.00
20670;DHT22;10494;50.868;4.180;2024-02-28T02:46:56;2.50;1.00
20670;DHT22;10494;50.868;4.180;2024-02-28T02:49:21;2.40;1.00
20670;DHT22;10494;50.868;4.180;2024-02-28T02:51:47;2.30;1.00
20670;DHT22;10494;50.868;4.180;2024-02-28T02:54:13;2.30;1.00
20670;DHT22;10494;50.868;4.180;2024-02-28T02:56:41;2.30;1.00
20670;DHT22;10494;50.868;4.180;2024-02-28T02:59:09;2.30;1.00
20670;DHT22;10494;50.868;4.180;2024-02-28T03:01:35;2.20;1.00
20670;DHT22;10494;50.868;4.180;2024-02-28T03:04:00;2.20;1.00
20670;DHT22;10494;50.868;4.180;2024-02-28T03:06:26;2.20;1.00
20670;DHT22;10494;50.868;4.180;2024-02-28T03:08:51;2.20;1.00
20670;DHT22;10494;50.868;4.180;2024-02-28T03:11:17;2.20;1.00
20670;DHT22;10494;50.868;4.180;2024-02-28T03:13:43;2.10;1.00
20670;DHT22;10494;50.868;4.180;2024-02-28T03:16:08;2.20;1.00
20670;DHT22;10494;50.868;4.180;2024-02-28T03:18:34;2.20;1.00
20670;DHT22;10494;50.868;4.180;2024-02-28T03:20:59;2.20;1.00
20670;DHT22;10494;50.868;4.180;2024-02-28T03:23:25;2.10;1.00
20670;DHT22;10494;50.868;4.180;2024-02-28T03:25:51;2.10;1.00
20670;DHT22;10494;50.868;4.180;2024-02-28T03:28:16;2.00;1.00
20670;DHT22;10494;50.868;4.180;2024-02-28T03:30:42;1.90;1.00
20670;DHT22;10494;50.868;4.180;2024-02-28T03:33:08;1.90;1.00
20670;DHT22;10494;50.868;4.180;2024-02-28T03:35:33;1.90;1.00
20670;DHT22;10494;50.868;4.180;2024-02-28T03:37:59;1.80;1.00
20670;DHT22;10494;50.868;4.180;2024-02-28T03:40:24;1.90;1.00
20670;DHT22;10494;50.868;4.180;2024-02-28T03:42:50;1.90;1.00
20670;DHT22;10494;50.868;4.180;2024-02-28T03:45:16;1.90;1.00
20670;DHT22;10494;50.868;4.180;2024-02-28T03:47:41;1.90;1.00
20670;DHT22;10494;50.868;4.180;2024-02-28T03:50:07;1.90;1.00
20670;DHT22;10494;50.868;4.180;2024-02-28T03:52:33;2.00;1.00
20670;DHT22;10494;50.868;4.180;2024-02-28T03:54:58;2.00;1.00
20670;DHT22;10494;50.868;4.180;2024-02-28T03:57:24;2.00;1.00
20670;DHT22;10494;50.868;4.180;2024-02-28T03:59:50;1.90;1.00
20670;DHT22;10494;50.868;4.180;2024-02-28T04:02:15;1.90;1.00
20670;DHT22;10494;50.868;4.180;2024-02-28T04:04:41;1.90;1.00
20670;DHT22;10494;50.868;4.180;2024-02-28T04:07:06;1.80;1.00
20670;DHT22;10494;50.868;4.180;2024-02-28T04:09:32;1.80;1.00
20670;DHT22;10494;50.868;4.180;2024-02-28T04:11:57;1.70;1.00
20670;DHT22;10494;50.868;4.180;2024-02-28T04:14:23;1.80;1.00
20670;DHT22;10494;50.868;4.180;2024-02-28T04:16:48;1.70;1.00
20670;DHT22;10494;50.868;4.180;2024-02-28T04:19:15;1.70;1.00
20670;DHT22;10494;50.868;4.180;2024-02-28T04:21:41;1.70;1.00
20670;DHT22;10494;50.868;4.180;2024-02-28T04:24:08;1.80;1.00
20670;DHT22;10494;50.868;4.180;2024-02-28T04:26:35;1.80;1.00
20670;DHT22;10494;50.868;4.180;2024-02-28T04:29:01;1.80;1.00
20670;DHT22;10494;50.868;4.180;2024-02-28T04:31:29;1.80;1.00
20670;DHT22;10494;50.868;4.180;2024-02-28T04:33:54;1.80;1.00
20670;DHT22;10494;50.868;4.180;2024-02-28T04:36:20;1.70;1.00
20670;DHT22;10494;50.868;4.180;2024-02-28T04:38:45;1.70;1.00
20670;DHT22;10494;50.868;4.180;2024-02-28T04:41:11;1.80;1.00
20670;DHT22;10494;50.868;4.180;2024-02-28T04:43:36;1.90;1.00
20670;DHT22;10494;50.868;4.180;2024-02-28T04:46:02;1.80;1.00
20670;DHT22;10494;50.868;4.180;2024-02-28T04:48:28;1.80;1.00
20670;DHT22;10494;50.868;4.180;2024-02-28T04:50:54;1.80;1.00
20670;DHT22;10494;50.868;4.180;2024-02-28T04:53:19;1.80;1.00
20670;DHT22;10494;50.868;4.180;2024-02-28T04:55:45;1.90;1.00
20670;DHT22;10494;50.868;4.180;2024-02-28T04:58:11;1.90;1.00
20670;DHT22;10494;50.868;4.180;2024-02-28T05:00:37;2.00;1.00
20670;DHT22;10494;50.868;4.180;2024-02-28T05:03:02;2.20;1.00
20670;DHT22;10494;50.868;4.180;2024-02-28T05:05:28;2.20;1.00
20670;DHT22;10494;50.868;4.180;2024-02-28T05:07:53;2.30;1.00
20670;DHT22;10494;50.868;4.180;2024-02-28T05:10:19;2.30;1.00
20670;DHT22;10494;50.868;4.180;2024-02-28T05:12:45;2.40;1.00
20670;DHT22;10494;50.868;4.180;2024-02-28T05:15:10;2.40;1.00
20670;DHT22;10494;50.868;4.180;2024-02-28T05:17:36;2.20;1.00
20670;DHT22;10494;50.868;4.180;2024-02-28T05:20:01;2.10;1.00
20670;DHT22;10494;50.868;4.180;2024-02-28T05:22:27;2.20;1.00
20670;DHT22;10494;50.868;4.180;2024-02-28T05:24:52;2.10;1.00
20670;DHT22;10494;50.868;4.180;2024-02-28T05:27:18;2.10;8.60
20670;DHT22;10494;50.868;4.180;2024-02-28T05:29:45;2.20;99.90
20670;DHT22;10494;50.868;4.180;2024-02-28T05:32:10;2.20;99.90
20670;DHT22;10494;50.868;4.180;2024-02-28T05:34:37;2.20;99.90
20670;DHT22;10494;50.868;4.180;2024-02-28T05:37:02;2.20;99.90
20670;DHT22;10494;50.868;4.180;2024-02-28T05:39:28;2.30;99.90
20670;DHT22;10494;50.868;4.180;2024-02-28T05:41:54;2.20;99.90
20670;DHT22;10494;50.868;4.180;2024-02-28T05:44:20;2.20;99.90
20670;DHT22;10494;50.868;4.180;2024-02-28T05:46:46;2.20;99.90
20670;DHT22;10494;50.868;4.180;2024-02-28T05:49:11;2.30;99.90
20670;DHT22;10494;50.868;4.180;2024-02-28T05:51:37;2.20;99.90
20670;DHT22;10494;50.868;4.180;2024-02-28T05:54:03;2.10;99.90
20670;DHT22;10494;50.868;4.180;2024-02-28T05:56:29;2.20;99.90
20670;DHT22;10494;50.868;4.180;2024-02-28T05:58:55;2.30;99.90
20670;DHT22;10494;50.868;4.180;2024-02-28T06:01:21;2.50;99.90
20670;DHT22;10494;50.868;4.180;2024-02-28T06:03:48;2.50;99.90
20670;DHT22;10494;50.868;4.180;2024-02-28T06:06:13;2.50;99.90
20670;DHT22;10494;50.868;4.180;2024-02-28T06:08:40;2.70;99.90
20670;DHT22;10494;50.868;4.180;2024-02-28T06:11:07;2.70;99.90
20670;DHT22;10494;50.868;4.180;2024-02-28T06:13:32;2.70;99.90
20670;DHT22;10494;50.868;4.180;2024-02-28T06:15:58;2.80;99.90
20670;DHT22;10494;50.868;4.180;2024-02-28T06:18:25;2.80;99.90
20670;DHT22;10494;50.868;4.180;2024-02-28T06:20:55;2.80;99.90
20670;DHT22;10494;50.868;4.180;2024-02-28T06:23:23;3.00;99.90
20670;DHT22;10494;50.868;4.180;2024-02-28T06:25:49;3.20;99.90
20670;DHT22;10494;50.868;4.180;2024-02-28T06:28:15;3.20;99.90
20670;DHT22;10494;50.868;4.180;2024-02-28T06:30:44;3.20;99.90
20670;DHT22;10494;50.868;4.180;2024-02-28T06:33:13;3.30;99.90
20670;DHT22;10494;50.868;4.180;2024-02-28T06:35:40;3.50;99.90
20670;DHT22;10494;50.868;4.180;2024-02-28T06:38:06;3.60;99.90
20670;DHT22;10494;50.868;4.180;2024-02-28T06:40:32;3.60;99.90
20670;DHT22;10494;50.868;4.180;2024-02-28T06:42:58;3.70;99.90
20670;DHT22;10494;50.868;4.180;2024-02-28T06:45:24;3.80;99.90
20670;DHT22;10494;50.868;4.180;2024-02-28T06:47:51;3.80;99.90
20670;DHT22;10494;50.868;4.180;2024-02-28T06:50:17;3.80;99.90
20670;DHT22;10494;50.868;4.180;2024-02-28T06:52:43;3.90;99.90
20670;DHT22;10494;50.868;4.180;2024-02-28T06:55:08;3.90;99.90
20670;DHT22;10494;50.868;4.180;2024-02-28T06:57:37;4.00;99.90
20670;DHT22;10494;50.868;4.180;2024-02-28T07:00:06;4.10;99.90
20670;DHT22;10494;50.868;4.180;2024-02-28T07:02:36;4.20;99.90
20670;DHT22;10494;50.868;4.180;2024-02-28T07:05:02;4.40;99.90
20670;DHT22;10494;50.868;4.180;2024-02-28T07:07:32;4.50;99.90
20670;DHT22;10494;50.868;4.180;2024-02-28T07:09:58;4.80;99.90
20670;DHT22;10494;50.868;4.180;2024-02-28T07:12:24;4.90;99.90
20670;DHT22;10494;50.868;4.180;2024-02-28T07:14:52;5.10;99.90
20670;DHT22;10494;50.868;4.180;2024-02-28T07:17:18;5.30;99.90
20670;DHT22;10494;50.868;4.180;2024-02-28T07:19:45;5.40;99.90
20670;DHT22;10494;50.868;4.180;2024-02-28T07:22:10;5.60;99.90
20670;DHT22;10494;50.868;4.180;2024-02-28T07:24:36;5.60;99.90
20670;DHT22;10494;50.868;4.180;2024-02-28T07:27:02;5.70;99.90
20670;DHT22;10494;50.868;4.180;2024-02-28T07:29:28;5.60;99.90
20670;DHT22;10494;50.868;4.180;2024-02-28T07:31:53;5.40;99.90
20670;DHT22;10494;50.868;4.180;2024-02-28T07:34:19;5.40;99.90
20670;DHT22;10494;50.868;4.180;2024-02-28T07:36:45;5.50;99.90
20670;DHT22;10494;50.868;4.180;2024-02-28T07:39:10;5.50;99.90
20670;DHT22;10494;50.868;4.180;2024-02-28T07:41:41;5.50;99.90
20670;DHT22;10494;50.868;4.180;2024-02-28T07:44:08;5.50;99.90
20670;DHT22;10494;50.868;4.180;2024-02-28T07:46:34;5.60;99.90
20670;DHT22;10494;50.868;4.180;2024-02-28T07:49:00;5.70;99.90
20670;DHT22;10494;50.868;4.180;2024-02-28T07:51:26;5.80;99.90
20670;DHT22;10494;50.868;4.180;2024-02-28T07:53:52;5.90;99.90
20670;DHT22;10494;50.868;4.180;2024-02-28T07:56:18;6.00;99.90
20670;DHT22;10494;50.868;4.180;2024-02-28T07:58:44;6.00;99.90
20670;DHT22;10494;50.868;4.180;2024-02-28T08:01:10;6.00;99.90
20670;DHT22;10494;50.868;4.180;2024-02-28T08:03:36;6.10;99.90
20670;DHT22;10494;50.868;4.180;2024-02-28T08:06:02;6.20;99.90
20670;DHT22;10494;50.868;4.180;2024-02-28T08:08:28;6.20;99.90
20670;DHT22;10494;50.868;4.180;2024-02-28T08:10:53;6.20;99.90
20670;DHT22;10494;50.868;4.180;2024-02-28T08:13:20;6.40;99.90
20670;DHT22;10494;50.868;4.180;2024-02-28T08:15:45;6.40;99.90
20670;DHT22;10494;50.868;4.180;2024-02-28T08:18:11;6.50;99.90
20670;DHT22;10494;50.868;4.180;2024-02-28T08:20:37;6.50;99.90
20670;DHT22;10494;50.868;4.180;2024-02-28T08:23:06;6.50;99.90
20670;DHT22;10494;50.868;4.180;2024-02-28T08:25:32;6.60;99.90
20670;DHT22;10494;50.868;4.180;2024-02-28T08:27:58;6.70;99.90
20670;DHT22;10494;50.868;4.180;2024-02-28T08:30:24;6.80;99.90
20670;DHT22;10494;50.868;4.180;2024-02-28T08:53:03;6.90;99.90
20670;DHT22;10494;50.868;4.180;2024-02-28T08:55:28;6.80;99.90
20670;DHT22;10494;50.868;4.180;2024-02-28T08:57:55;6.90;99.90
20670;DHT22;10494;50.868;4.180;2024-02-28T09:00:20;7.00;99.90
20670;DHT22;10494;50.868;4.180;2024-02-28T09:02:47;6.90;99.90
20670;DHT22;10494;50.868;4.180;2024-02-28T09:05:12;7.00;99.90
20670;DHT22;10494;50.868;4.180;2024-02-28T09:07:38;7.00;99.90
20670;DHT22;10494;50.868;4.180;2024-02-28T09:10:04;7.10;99.90
20670;DHT22;10494;50.868;4.180;2024-02-28T09:12:33;7.10;99.90
20670;DHT22;10494;50.868;4.180;2024-02-28T09:14:59;7.20;99.90
20670;DHT22;10494;50.868;4.180;2024-02-28T09:17:25;7.30;99.90
20670;DHT22;10494;50.868;4.180;2024-02-28T09:19:52;7.40;99.90
20670;DHT22;10494;50.868;4.180;2024-02-28T09:22:17;7.40;99.90
20670;DHT22;10494;50.868;4.180;2024-02-28T09:24:43;7.50;99.90
20670;DHT22;10494;50.868;4.180;2024-02-28T09:27:09;7.60;99.90
20670;DHT22;10494;50.868;4.180;2024-02-28T09:29:34;7.70;99.90
20670;DHT22;10494;50.868;4.180;2024-02-28T09:32:00;7.80;99.90
20670;DHT22;10494;50.868;4.180;2024-02-28T09:34:26;7.80;99.90
20670;DHT22;10494;50.868;4.180;2024-02-28T09:36:51;8.00;99.90
20670;DHT22;10494;50.868;4.180;2024-02-28T09:39:17;8.00;99.90
20670;DHT22;10494;50.868;4.180;2024-02-28T09:41:43;8.10;99.90
20670;DHT22;10494;50.868;4.180;2024-02-28T09:44:09;8.20;99.90
20670;DHT22;10494;50.868;4.180;2024-02-28T09:46:35;8.20;99.90
20670;DHT22;10494;50.868;4.180;2024-02-28T09:49:07;8.30;99.90
20670;DHT22;10494;50.868;4.180;2024-02-28T09:51:34;8.20;99.90
20670;DHT22;10494;50.868;4.180;2024-02-28T09:54:03;8.40;99.90
20670;DHT22;10494;50.868;4.180;2024-02-28T09:56:29;8.40;99.90
20670;DHT22;10494;50.868;4.180;2024-02-28T09:58:55;8.70;99.90
20670;DHT22;10494;50.868;4.180;2024-02-28T10:01:25;8.90;99.90
20670;DHT22;10494;50.868;4.180;2024-02-28T10:03:52;9.00;99.90
20670;DHT22;10494;50.868;4.180;2024-02-28T10:06:19;9.10;99.90
20670;DHT22;10494;50.868;4.180;2024-02-28T10:08:44;9.10;99.90
20670;DHT22;10494;50.868;4.180;2024-02-28T10:11:23;9.30;99.90
20670;DHT22;10494;50.868;4.180;2024-02-28T10:13:49;9.30;99.90
20670;DHT22;10494;50.868;4.180;2024-02-28T10:16:15;9.30;99.90
20670;DHT22;10494;50.868;4.180;2024-02-28T10:18:44;9.40;99.90
20670;DHT22;10494;50.868;4.180;2024-02-28T10:21:11;9.50;99.90
20670;DHT22;10494;50.868;4.180;2024-02-28T10:23:45;9.40;99.90
20670;DHT22;10494;50.868;4.180;2024-02-28T10:26:11;9.30;99.90
20670;DHT22;10494;50.868;4.180;2024-02-28T10:28:38;9.30;99.90
20670;DHT22;10494;50.868;4.180;2024-02-28T10:31:05;9.10;99.90
20670;DHT22;10494;50.868;4.180;2024-02-28T10:33:32;9.20;99.90
20670;DHT22;10494;50.868;4.180;2024-02-28T10:35:59;9.30;99.90
20670;DHT22;10494;50.868;4.180;2024-02-28T10:38:26;9.40;99.90
20670;DHT22;10494;50.868;4.180;2024-02-28T10:40:53;9.50;99.90
20670;DHT22;10494;50.868;4.180;2024-02-28T10:43:19;9.50;99.90
20670;DHT22;10494;50.868;4.180;2024-02-28T10:45:46;9.60;99.90
20670;DHT22;10494;50.868;4.180;2024-02-28T10:48:14;9.80;99.90
20670;DHT22;10494;50.868;4.180;2024-02-28T10:50:41;9.90;99.90
20670;DHT22;10494;50.868;4.180;2024-02-28T10:53:14;10.00;99.90
20670;DHT22;10494;50.868;4.180;2024-02-28T10:55:41;10.10;99.90
20670;DHT22;10494;50.868;4.180;2024-02-28T10:58:08;10.20;99.90
20670;DHT22;10494;50.868;4.180;2024-02-28T11:00:39;10.10;99.90
20670;DHT22;10494;50.868;4.180;2024-02-28T11:03:07;10.20;99.90
20670;DHT22;10494;50.868;4.180;2024-02-28T11:05:43;10.20;99.90
20670;DHT22;10494;50.868;4.180;2024-02-28T11:08:23;10.30;99.90
20670;DHT22;10494;50.868;4.180;2024-02-28T11:13:26;10.80;99.90
20670;DHT22;10494;50.868;4.180;2024-02-28T11:15:53;10.90;99.90
20670;DHT22;10494;50.868;4.180;2024-02-28T11:18:20;11.10;99.90
20670;DHT22;10494;50.868;4.180;2024-02-28T11:20:46;11.30;99.90
20670;DHT22;10494;50.868;4.180;2024-02-28T11:23:13;11.30;99.90
20670;DHT22;10494;50.868;4.180;2024-02-28T11:25:40;11.40;99.90
20670;DHT22;10494;50.868;4.180;2024-02-28T11:28:06;11.40;99.90
20670;DHT22;10494;50.868;4.180;2024-02-28T11:30:32;11.50;99.90
20670;DHT22;10494;50.868;4.180;2024-02-28T11:32:58;11.70;99.90
20670;DHT22;10494;50.868;4.180;2024-02-28T11:35:25;11.80;99.90
20670;DHT22;10494;50.868;4.180;2024-02-28T11:37:52;11.80;99.90
20670;DHT22;10494;50.868;4.180;2024-02-28T11:40:22;11.60;99.90
20670;DHT22;10494;50.868;4.180;2024-02-28T11:42:48;11.40;99.90
20670;DHT22;10494;50.868;4.180;2024-02-28T11:45:14;11.30;99.90
20670;DHT22;10494;50.868;4.180;2024-02-28T11:47:40;11.30;99.90
20670;DHT22;10494;50.868;4.180;2024-02-28T11:50:06;11.40;99.90
20670;DHT22;10494;50.868;4.180;2024-02-28T11:52:33;11.70;99.90
20670;DHT22;10494;50.868;4.180;2024-02-28T11:54:59;12.00;99.90
20670;DHT22;10494;50.868;4.180;2024-02-28T11:57:26;12.30;99.90
20670;DHT22;10494;50.868;4.180;2024-02-28T11:59:51;12.20;99.90
20670;DHT22;10494;50.868;4.180;2024-02-28T12:02:17;12.10;99.90
20670;DHT22;10494;50.868;4.180;2024-02-28T12:04:44;11.90;99.90
20670;DHT22;10494;50.868;4.180;2024-02-28T12:07:11;11.80;99.90
20670;DHT22;10494;50.868;4.180;2024-02-28T12:09:36;11.80;99.90
20670;DHT22;10494;50.868;4.180;2024-02-28T12:12:02;11.90;99.90
20670;DHT22;10494;50.868;4.180;2024-02-28T12:14:32;12.10;99.90
20670;DHT22;10494;50.868;4.180;2024-02-28T12:16:58;12.40;99.90
20670;DHT22;10494;50.868;4.180;2024-02-28T12:19:24;12.20;99.90
20670;DHT22;10494;50.868;4.180;2024-02-28T12:21:50;12.30;99.90
20670;DHT22;10494;50.868;4.180;2024-02-28T12:24:15;12.20;99.90
20670;DHT22;10494;50.868;4.180;2024-02-28T12:26:41;12.00;99.90
20670;DHT22;10494;50.868;4.180;2024-02-28T12:29:07;12.00;99.90
20670;DHT22;10494;50.868;4.180;2024-02-28T12:31:35;12.20;99.90
20670;DHT22;10494;50.868;4.180;2024-02-28T12:34:00;12.20;99.90
20670;DHT22;10494;50.868;4.180;2024-02-28T12:36:26;12.10;99.90
20670;DHT22;10494;50.868;4.180;2024-02-28T12:38:52;11.80;99.90
20670;DHT22;10494;50.868;4.180;2024-02-28T12:41:17;11.90;99.90
20670;DHT22;10494;50.868;4.180;2024-02-28T12:43:43;12.10;99.90
20670;DHT22;10494;50.868;4.180;2024-02-28T12:46:09;12.30;99.90
20670;DHT22;10494;50.868;4.180;2024-02-28T12:48:38;12.20;99.90
20670;DHT22;10494;50.868;4.180;2024-02-28T12:51:05;12.30;99.90
20670;DHT22;10494;50.868;4.180;2024-02-28T12:53:34;12.20;99.90
20670;DHT22;10494;50.868;4.180;2024-02-28T12:56:00;12.10;99.90
20670;DHT22;10494;50.868;4.180;2024-02-28T12:58:26;11.90;99.90
20670;DHT22;10494;50.868;4.180;2024-02-28T13:00:51;11.70;99.90
20670;DHT22;10494;50.868;4.180;2024-02-28T13:03:17;11.60;99.90
20670;DHT22;10494;50.868;4.180;2024-02-28T13:05:43;11.80;99.90
20670;DHT22;10494;50.868;4.180;2024-02-28T13:08:09;11.50;99.90
20670;DHT22;10494;50.868;4.180;2024-02-28T13:10:35;11.60;99.90
20670;DHT22;10494;50.868;4.180;2024-02-28T13:13:05;11.70;99.90
20670;DHT22;10494;50.868;4.180;2024-02-28T13:15:31;11.80;99.90
20670;DHT22;10494;50.868;4.180;2024-02-28T13:17:57;12.10;99.90
20670;DHT22;10494;50.868;4.180;2024-02-28T13:20:23;12.00;99.90
20670;DHT22;10494;50.868;4.180;2024-02-28T13:22:48;11.70;99.90
20670;DHT22;10494;50.868;4.180;2024-02-28T13:25:14;11.80;99.90
20670;DHT22;10494;50.868;4.180;2024-02-28T13:27:41;11.80;99.90
20670;DHT22;10494;50.868;4.180;2024-02-28T13:30:07;11.80;99.90
20670;DHT22;10494;50.868;4.180;2024-02-28T13:32:32;11.80;99.90
20670;DHT22;10494;50.868;4.180;2024-02-28T13:34:58;11.80;99.90
20670;DHT22;10494;50.868;4.180;2024-02-28T13:37:25;11.80;99.90
20670;DHT22;10494;50.868;4.180;2024-02-28T13:39:50;11.70;99.90
20670;DHT22;10494;50.868;4.180;2024-02-28T13:42:17;11.70;99.90
20670;DHT22;10494;50.868;4.180;2024-02-28T13:44:45;11.50;99.90
20670;DHT22;10494;50.868;4.180;2024-02-28T13:47:12;11.40;99.90
20670;DHT22;10494;50.868;4.180;2024-02-28T13:49:39;11.50;99.90
20670;DHT22;10494;50.868;4.180;2024-02-28T13:52:05;11.50;99.90
20670;DHT22;10494;50.868;4.180;2024-02-28T13:54:30;11.60;99.90
20670;DHT22;10494;50.868;4.180;2024-02-28T13:56:57;11.70;99.90
20670;DHT22;10494;50.868;4.180;2024-02-28T13:59:23;11.70;99.90
20670;DHT22;10494;50.868;4.180;2024-02-28T14:01:49;11.60;99.90
20670;DHT22;10494;50.868;4.180;2024-02-28T14:04:15;11.40;99.90
20670;DHT22;10494;50.868;4.180;2024-02-28T14:06:41;11.50;99.90
20670;DHT22;10494;50.868;4.180;2024-02-28T14:09:06;11.50;99.90
20670;DHT22;10494;50.868;4.180;2024-02-28T14:11:32;11.50;99.90
20670;DHT22;10494;50.868;4.180;2024-02-28T14:13:58;11.50;99.90
20670;DHT22;10494;50.868;4.180;2024-02-28T14:16:24;11.40;99.90
20670;DHT22;10494;50.868;4.180;2024-02-28T14:18:50;11.50;99.90
20670;DHT22;10494;50.868;4.180;2024-02-28T14:21:16;11.60;99.90
20670;DHT22;10494;50.868;4.180;2024-02-28T14:23:42;11.60;99.90
20670;DHT22;10494;50.868;4.180;2024-02-28T14:26:08;11.50;99.90
20670;DHT22;10494;50.868;4.180;2024-02-28T14:28:34;11.30;99.90
20670;DHT22;10494;50.868;4.180;2024-02-28T14:31:00;11.40;99.90
20670;DHT22;10494;50.868;4.180;2024-02-28T14:33:25;11.30;99.90
20670;DHT22;10494;50.868;4.180;2024-02-28T14:35:51;11.30;99.90
20670;DHT22;10494;50.868;4.180;2024-02-28T14:38:17;11.40;99.90
20670;DHT22;10494;50.868;4.180;2024-02-28T14:40:43;11.70;99.90
20670;DHT22;10494;50.868;4.180;2024-02-28T14:43:08;11.80;99.90
20670;DHT22;10494;50.868;4.180;2024-02-28T14:45:34;11.80;99.90
20670;DHT22;10494;50.868;4.180;2024-02-28T14:48:01;11.80;99.90
20670;DHT22;10494;50.868;4.180;2024-02-28T14:50:27;11.80;99.90
20670;DHT22;10494;50.868;4.180;2024-02-28T14:52:52;11.70;99.90
20670;DHT22;10494;50.868;4.180;2024-02-28T14:55:18;11.60;99.90
20670;DHT22;10494;50.868;4.180;2024-02-28T14:57:43;11.60;99.90
20670;DHT22;10494;50.868;4.180;2024-02-28T15:00:10;11.60;99.90
20670;DHT22;10494;50.868;4.180;2024-02-28T15:02:42;11.60;99.90
20670;DHT22;10494;50.868;4.180;2024-02-28T15:05:08;11.60;99.90
20670;DHT22;10494;50.868;4.180;2024-02-28T15:07:34;11.50;99.90
20670;DHT22;10494;50.868;4.180;2024-02-28T15:10:04;11.50;99.90
20670;DHT22;10494;50.868;4.180;2024-02-28T15:12:31;11.60;99.90
20670;DHT22;10494;50.868;4.180;2024-02-28T15:15:01;11.60;99.90
20670;DHT22;10494;50.868;4.180;2024-02-28T15:17:30;11.60;99.90
20670;DHT22;10494;50.868;4.180;2024-02-28T15:19:56;11.60;99.90
20670;DHT22;10494;50.868;4.180;2024-02-28T15:22:23;11.50;99.90
20670;DHT22;10494;50.868;4.180;2024-02-28T15:24:48;11.50;99.90
20670;DHT22;10494;50.868;4.180;2024-02-28T15:27:14;11.60;99.90
20670;DHT22;10494;50.868;4.180;2024-02-28T15:29:40;11.60;99.90
20670;DHT22;10494;50.868;4.180;2024-02-28T15:32:06;11.60;99.90
20670;DHT22;10494;50.868;4.180;2024-02-28T15:34:31;11.50;99.90
20670;DHT22;10494;50.868;4.180;2024-02-28T15:36:57;11.60;99.90
20670;DHT22;10494;50.868;4.180;2024-02-28T15:39:23;11.50;99.90
20670;DHT22;10494;50.868;4.180;2024-02-28T15:41:49;11.30;99.90
20670;DHT22;10494;50.868;4.180;2024-02-28T15:44:17;11.20;99.90
20670;DHT22;10494;50.868;4.180;2024-02-28T15:46:42;11.00;99.90
20670;DHT22;10494;50.868;4.180;2024-02-28T15:49:08;11.00;99.90
20670;DHT22;10494;50.868;4.180;2024-02-28T15:51:34;11.20;99.90
20670;DHT22;10494;50.868;4.180;2024-02-28T15:54:01;11.30;99.90
20670;DHT22;10494;50.868;4.180;2024-02-28T15:56:26;11.30;99.90
20670;DHT22;10494;50.868;4.180;2024-02-28T15:58:52;11.20;99.90
20670;DHT22;10494;50.868;4.180;2024-02-28T16:01:18;11.10;99.90
20670;DHT22;10494;50.868;4.180;2024-02-28T16:03:44;11.20;99.90